Time;durP1;ratioP1;P1;durP2;ratioP2;P2;SDS_P1;SDS_P2;PMS_P1;PMS_P2;Temp;Humidity;BMP_temperature;BMP_pressure;BME280_temperature;BME280_humidity;BME280_pressure;Samples;Min_cycle;Max_cycle;Signal;HPM_P1;HPM_P2
2021/12/23 00:00:16;;;;;;;69.68;30.70;;;1.50;50.60;;;;;;4788435;30;20038;-88
2021/12/23 00:03:21;;;;;;;63.33;30.50;;;1.50;50.70;;;;;;4788287;30;20545;-89
2021/12/23 00:06:04;;;;;;;79.22;32.20;;;1.50;50.60;;;;;;4788157;30;20054;-87
2021/12/23 00:11:51;;;;;;;77.07;31.00;;;1.50;50.50;;;;;;4788395;29;20058;-90
2021/12/23 00:14:16;;;;;;;77.18;30.92;;;1.50;50.50;;;;;;4823137;24;20405;-88
2021/12/23 00:16:47;;;;;;;72.65;31.77;;;1.50;50.60;;;;;;4862992;29;20041;-89
2021/12/23 00:25:20;;;;;;;62.63;28.40;;;0.80;51.00;;;;;;5112064;28;20528;-90
2021/12/23 00:27:46;;;;;;;74.22;31.75;;;0.70;51.80;;;;;;5093870;28;20020;-88
2021/12/23 00:30:12;;;;;;;70.47;29.08;;;0.70;51.70;;;;;;5092873;28;20031;-89
2021/12/23 00:32:37;;;;;;;65.93;28.60;;;0.90;52.10;;;;;;5093285;28;20063;-90
2021/12/23 00:35:04;;;;;;;69.00;29.48;;;1.00;52.50;;;;;;5093362;28;20024;-89
2021/12/23 00:37:37;;;;;;;66.55;29.63;;;1.30;52.70;;;;;;5111480;28;20027;-88
2021/12/23 00:40:04;;;;;;;72.35;32.33;;;1.40;52.00;;;;;;5093749;28;20039;-90
2021/12/23 00:42:31;;;;;;;69.20;30.92;;;1.60;50.30;;;;;;5092923;28;20359;-88
2021/12/23 00:44:57;;;;;;;67.13;30.02;;;1.50;50.00;;;;;;5093050;28;20028;-88
2021/12/23 00:47:23;;;;;;;64.15;28.15;;;1.60;50.60;;;;;;5110979;28;20035;-89
2021/12/23 00:49:49;;;;;;;67.10;29.92;;;1.40;50.10;;;;;;5092877;28;20454;-89
2021/12/23 00:52:18;;;;;;;66.75;28.83;;;1.40;50.60;;;;;;5092722;28;20031;-90
2021/12/23 00:54:43;;;;;;;61.25;27.33;;;1.50;50.70;;;;;;5093041;28;20030;-89
2021/12/23 00:57:10;;;;;;;67.07;27.88;;;1.50;51.10;;;;;;5111071;28;20016;-88
2021/12/23 00:59:37;;;;;;;60.50;25.33;;;1.80;50.60;;;;;;5092394;28;20036;-89
2021/12/23 01:02:07;;;;;;;61.80;26.42;;;1.20;51.30;;;;;;5092902;28;20020;-88
2021/12/23 01:04:33;;;;;;;69.32;28.23;;;1.30;50.70;;;;;;5092754;28;20046;-88
2021/12/23 01:06:59;;;;;;;60.50;26.35;;;1.00;51.10;;;;;;5110692;28;20478;-88
2021/12/23 01:09:25;;;;;;;65.30;26.45;;;0.90;51.60;;;;;;5092677;28;20024;-87
2021/12/23 01:11:51;;;;;;;61.80;25.55;;;1.00;52.00;;;;;;5110622;28;20024;-89
2021/12/23 01:19:38;;;;;;;57.63;24.77;;;0.90;51.20;;;;;;5027895;28;20512;-88
2021/12/23 01:22:04;;;;;;;64.30;26.08;;;1.00;51.40;;;;;;5011813;28;20064;-88
2021/12/23 01:24:33;;;;;;;62.22;27.45;;;0.90;51.20;;;;;;5011154;28;20582;-88
2021/12/23 01:26:59;;;;;;;57.85;25.48;;;0.80;51.50;;;;;;5011493;28;20053;-88
2021/12/23 01:29:24;;;;;;;58.10;25.20;;;0.90;51.90;;;;;;5010547;28;20068;-87
2021/12/23 01:31:50;;;;;;;54.25;24.65;;;0.80;51.30;;;;;;5014691;28;20034;-88
2021/12/23 01:34:16;;;;;;;63.42;27.23;;;0.90;50.80;;;;;;4997919;28;20037;-89
2021/12/23 01:36:42;;;;;;;61.92;26.30;;;0.90;50.80;;;;;;4998534;28;20112;-87
2021/12/23 01:39:07;;;;;;;68.88;25.65;;;0.90;50.80;;;;;;5014586;28;20069;-89
2021/12/23 01:41:33;;;;;;;66.07;25.50;;;0.90;50.70;;;;;;5014138;28;20033;-88
2021/12/23 01:43:59;;;;;;;56.40;26.20;;;0.90;50.80;;;;;;4998117;28;20030;-87
2021/12/23 01:46:25;;;;;;;74.43;27.90;;;0.90;50.80;;;;;;4998142;28;20022;-87
2021/12/23 01:48:51;;;;;;;65.20;24.70;;;0.70;51.30;;;;;;5014500;28;20049;-88
2021/12/23 01:51:17;;;;;;;59.17;25.90;;;0.70;51.70;;;;;;4997926;28;20562;-88
2021/12/23 01:53:43;;;;;;;57.80;25.75;;;0.60;51.60;;;;;;5014601;28;20042;-86
2021/12/23 01:56:09;;;;;;;54.75;23.90;;;0.60;52.00;;;;;;5024914;28;20044;-88
2021/12/23 01:58:37;;;;;;;56.53;24.65;;;0.50;52.40;;;;;;5077957;28;20054;-87
2021/12/23 02:01:04;;;;;;;56.55;27.13;;;0.50;52.60;;;;;;5096477;28;20027;-88
2021/12/23 02:03:30;;;;;;;61.65;25.25;;;0.70;52.40;;;;;;5078041;28;20025;-88
2021/12/23 02:05:56;;;;;;;55.10;25.27;;;1.00;52.10;;;;;;5096024;28;20024;-88
2021/12/23 02:08:21;;;;;;;52.72;24.65;;;1.10;51.60;;;;;;5078050;28;20577;-89
2021/12/23 02:10:47;;;;;;;54.38;25.10;;;1.10;50.70;;;;;;5096205;28;20020;-89
2021/12/23 02:13:13;;;;;;;59.05;25.90;;;1.20;50.40;;;;;;5077821;28;20515;-88
2021/12/23 02:15:39;;;;;;;66.65;26.08;;;1.50;50.20;;;;;;5078061;28;20473;-88
2021/12/23 02:18:36;;;;;;;55.83;23.73;;;1.60;50.20;;;;;;5082961;27;1445383;-88
2021/12/23 02:21:03;;;;;;;55.53;23.75;;;1.30;49.40;;;;;;5111771;28;20031;-88
2021/12/23 02:23:29;;;;;;;57.53;23.95;;;0.90;50.60;;;;;;5093527;28;20467;-88
2021/12/23 02:25:56;;;;;;;54.05;23.33;;;0.90;51.30;;;;;;5111399;28;20031;-89
2021/12/23 02:28:22;;;;;;;50.38;22.30;;;0.70;51.70;;;;;;5093480;28;20027;-88
2021/12/23 02:30:51;;;;;;;59.63;22.90;;;0.70;51.90;;;;;;5093559;28;20027;-88
2021/12/23 02:33:19;;;;;;;51.58;22.17;;;1.00;51.30;;;;;;5093137;28;20032;-89
2021/12/23 02:35:45;;;;;;;58.67;23.98;;;0.90;50.30;;;;;;5093252;28;20356;-88
2021/12/23 02:38:10;;;;;;;51.75;22.63;;;0.80;50.50;;;;;;5111446;28;20081;-89
2021/12/23 02:40:39;;;;;;;55.35;24.05;;;0.90;50.30;;;;;;5111249;28;20020;-88
2021/12/23 02:43:16;;;;;;;54.97;23.48;;;0.90;50.40;;;;;;5093238;28;20048;-88
2021/12/23 02:45:43;;;;;;;52.58;23.20;;;0.90;50.90;;;;;;5093188;28;20027;-88
2021/12/23 02:48:15;;;;;;;57.97;22.75;;;1.00;50.90;;;;;;5093330;28;20039;-88
2021/12/23 02:50:43;;;;;;;53.40;22.83;;;1.10;50.70;;;;;;5092985;28;20080;-88
2021/12/23 02:53:09;;;;;;;55.88;22.85;;;1.10;50.30;;;;;;5092649;28;20387;-88
2021/12/23 02:55:35;;;;;;;58.42;24.05;;;1.20;50.00;;;;;;5092752;28;20462;-88
2021/12/23 02:58:01;;;;;;;49.90;22.60;;;1.20;50.30;;;;;;5093142;28;20406;-88
2021/12/23 03:00:27;;;;;;;45.35;21.30;;;1.40;50.30;;;;;;5111048;28;20502;-88
2021/12/23 03:02:52;;;;;;;51.65;23.30;;;1.40;49.80;;;;;;5092798;28;20504;-88
2021/12/23 03:05:18;;;;;;;53.38;22.85;;;1.50;49.70;;;;;;5092798;28;20024;-89
2021/12/23 03:07:44;;;;;;;44.72;21.05;;;1.50;49.20;;;;;;5092843;28;20035;-89
2021/12/23 03:10:10;;;;;;;48.92;22.50;;;1.10;49.20;;;;;;5092140;28;20023;-89
2021/12/23 03:12:36;;;;;;;51.22;22.85;;;1.00;49.50;;;;;;5111134;28;20024;-88
2021/12/23 03:15:03;;;;;;;55.22;22.65;;;0.70;49.70;;;;;;5092593;28;20032;-89
2021/12/23 03:17:30;;;;;;;52.90;24.40;;;0.70;49.90;;;;;;5110094;28;20070;-87
2021/12/23 03:19:56;;;;;;;55.13;22.20;;;0.50;49.90;;;;;;5110550;28;20024;-88
2021/12/23 03:22:22;;;;;;;55.67;22.10;;;0.50;50.10;;;;;;5092242;28;20032;-90
2021/12/23 03:24:47;;;;;;;52.40;21.33;;;0.40;50.00;;;;;;5092169;28;20031;-88
2021/12/23 03:27:13;;;;;;;53.85;22.92;;;0.10;50.10;;;;;;5092275;28;20031;-90
2021/12/23 03:29:39;;;;;;;51.38;23.92;;;-0.30;51.00;;;;;;5080793;28;20024;-89
2021/12/23 03:32:05;;;;;;;55.03;22.65;;;-0.20;51.40;;;;;;5096703;28;20138;-89
2021/12/23 03:34:31;;;;;;;51.95;22.70;;;0.10;51.60;;;;;;5078679;28;20027;-89
2021/12/23 03:36:57;;;;;;;44.92;21.25;;;0.20;51.20;;;;;;5096822;28;20097;-88
2021/12/23 03:39:23;;;;;;;54.58;22.38;;;0.20;50.70;;;;;;5078482;28;20024;-87
2021/12/23 03:41:49;;;;;;;52.10;22.60;;;0.20;50.10;;;;;;5078545;28;20035;-88
2021/12/23 03:44:15;;;;;;;47.80;22.33;;;0.20;50.30;;;;;;5078589;28;20053;-89
2021/12/23 03:46:41;;;;;;;55.95;21.80;;;0.40;50.30;;;;;;5078293;28;20024;-88
2021/12/23 03:49:08;;;;;;;52.35;21.58;;;0.20;50.40;;;;;;5078107;28;20032;-87
2021/12/23 03:51:35;;;;;;;46.88;21.05;;;0.10;50.90;;;;;;5096449;28;20360;-88
2021/12/23 03:54:01;;;;;;;52.60;21.58;;;0.10;51.10;;;;;;5078329;28;20032;-88
2021/12/23 03:56:27;;;;;;;50.58;21.25;;;0.30;51.20;;;;;;5096282;28;20422;-88
2021/12/23 03:58:55;;;;;;;49.35;22.13;;;0.30;50.70;;;;;;5078070;28;20110;-87
2021/12/23 04:01:22;;;;;;;53.10;22.65;;;-0.10;51.50;;;;;;5078048;28;20032;-88
2021/12/23 04:03:50;;;;;;;49.13;21.83;;;-0.20;51.90;;;;;;5077922;28;20043;-88
2021/12/23 04:06:16;;;;;;;56.28;22.65;;;0.10;52.00;;;;;;5078068;28;20024;-88
2021/12/23 04:08:41;;;;;;;47.72;20.88;;;0.50;51.20;;;;;;5096285;28;20387;-88
2021/12/23 04:11:07;;;;;;;48.60;21.23;;;0.50;50.00;;;;;;5095806;28;20107;-88
2021/12/23 04:13:33;;;;;;;41.97;19.77;;;0.40;49.80;;;;;;5077902;28;20355;-88
2021/12/23 04:15:59;;;;;;;48.88;22.35;;;0.20;50.20;;;;;;5095524;28;20028;-88
2021/12/23 04:18:25;;;;;;;42.33;20.23;;;0.20;50.70;;;;;;5074311;28;20060;-88
2021/12/23 04:20:53;;;;;;;48.75;19.63;;;0.20;50.70;;;;;;5075678;28;20031;-88
2021/12/23 04:23:24;;;;;;;46.13;20.80;;;-0.10;50.50;;;;;;5074340;28;20483;-88
2021/12/23 04:25:50;;;;;;;48.70;20.85;;;-0.40;51.00;;;;;;5074574;28;20502;-88
2021/12/23 04:28:17;;;;;;;45.78;20.58;;;-0.50;52.20;;;;;;5074492;28;20016;-88
2021/12/23 04:30:43;;;;;;;49.75;21.75;;;-0.40;52.50;;;;;;5074450;28;20024;-87
2021/12/23 04:33:09;;;;;;;49.95;22.30;;;0.00;52.30;;;;;;5075218;28;20021;-87
2021/12/23 04:35:35;;;;;;;46.45;21.05;;;0.50;52.40;;;;;;5074174;28;20094;-88
2021/12/23 04:38:01;;;;;;;44.78;20.92;;;0.90;52.10;;;;;;5075316;28;20434;-88
2021/12/23 04:40:30;;;;;;;48.33;21.15;;;1.20;51.50;;;;;;5073256;28;20111;-88
2021/12/23 04:42:55;;;;;;;48.15;21.42;;;0.70;52.80;;;;;;5074068;28;20028;-88
2021/12/23 04:45:21;;;;;;;47.40;21.23;;;0.50;54.20;;;;;;5073852;28;20024;-87
2021/12/23 04:47:47;;;;;;;47.65;21.05;;;0.90;54.50;;;;;;5073887;28;20060;-88
2021/12/23 04:50:14;;;;;;;50.40;22.20;;;1.40;54.00;;;;;;5074047;28;20078;-87
2021/12/23 04:52:42;;;;;;;54.50;22.65;;;1.90;53.00;;;;;;5074333;28;20051;-89
2021/12/23 04:55:09;;;;;;;50.60;24.35;;;2.30;52.00;;;;;;5073710;28;20025;-87
2021/12/23 04:57:35;;;;;;;54.88;23.40;;;2.40;51.10;;;;;;5073471;28;20039;-88
2021/12/23 05:00:03;;;;;;;47.50;23.45;;;2.50;50.30;;;;;;5073728;28;20028;-88
2021/12/23 05:02:29;;;;;;;52.30;24.50;;;2.20;50.00;;;;;;5073643;28;20082;-88
2021/12/23 05:04:54;;;;;;;60.90;25.70;;;1.80;50.80;;;;;;5073598;28;20028;-89
2021/12/23 05:07:20;;;;;;;49.90;23.33;;;1.60;51.10;;;;;;5074779;28;20479;-88
2021/12/23 05:09:47;;;;;;;55.47;23.85;;;1.50;51.40;;;;;;5073520;28;20077;-89
2021/12/23 05:12:46;;;;;;;47.88;23.35;;;1.50;51.60;;;;;;4995235;27;3961011;-88
2021/12/23 05:15:17;;;;;;;53.65;24.48;;;1.70;51.60;;;;;;5093108;28;20062;-88
2021/12/23 05:17:44;;;;;;;50.03;25.10;;;1.70;51.50;;;;;;5093462;28;20466;-85
2021/12/23 05:20:11;;;;;;;57.05;23.50;;;1.70;51.70;;;;;;5093572;28;20027;-83
2021/12/23 05:22:38;;;;;;;54.80;23.45;;;1.60;51.60;;;;;;5093032;28;20416;-86
2021/12/23 05:25:05;;;;;;;53.75;24.38;;;1.90;51.60;;;;;;5111249;28;20024;-90
2021/12/23 05:27:31;;;;;;;51.72;24.23;;;1.90;51.00;;;;;;5110690;28;20028;-88
2021/12/23 05:30:01;;;;;;;54.72;23.77;;;1.80;50.70;;;;;;5092720;28;20020;-85
2021/12/23 05:32:27;;;;;;;54.85;24.20;;;1.80;51.30;;;;;;5092768;28;20042;-91
2021/12/23 05:34:53;;;;;;;55.70;24.05;;;2.10;51.40;;;;;;5093116;28;20073;-86
2021/12/23 05:37:45;;;;;;;56.15;24.70;;;2.30;50.80;;;;;;5092554;28;20028;-91
2021/12/23 05:40:13;;;;;;;50.55;23.38;;;2.40;51.10;;;;;;5093244;28;20019;-88
2021/12/23 05:42:39;;;;;;;52.03;23.05;;;2.30;51.30;;;;;;5110532;28;20027;-86
2021/12/23 05:45:09;;;;;;;52.85;22.88;;;2.30;50.90;;;;;;5092826;28;20032;-86
2021/12/23 05:47:35;;;;;;;;;;;2.60;51.00;;;;;;5092850;28;20023;-85
2021/12/23 05:50:01;;;;;;;52.47;24.55;;;2.80;50.90;;;;;;5092629;28;19908;-90
2021/12/23 05:52:26;;;;;;;64.10;25.88;;;2.90;50.80;;;;;;5092651;28;20065;-86
2021/12/23 05:54:54;;;;;;;58.28;26.08;;;3.00;51.20;;;;;;5111040;28;20437;-84
2021/12/23 05:57:23;;;;;;;56.13;25.80;;;3.20;50.90;;;;;;5092443;28;20030;-86
2021/12/23 05:59:48;;;;;;;65.38;27.85;;;3.20;51.20;;;;;;5092859;28;20019;-91
2021/12/23 06:02:16;;;;;;;55.88;27.27;;;3.20;51.20;;;;;;5092825;28;20031;-85
2021/12/23 06:04:42;;;;;;;61.55;26.90;;;3.20;51.50;;;;;;5092005;28;20050;-90
2021/12/23 06:07:09;;;;;;;61.40;27.35;;;3.10;51.80;;;;;;5091816;28;20032;-86
2021/12/23 06:09:40;;;;;;;59.30;27.92;;;3.10;51.60;;;;;;5092544;28;20056;-88
2021/12/23 06:12:06;;;;;;;56.10;28.02;;;2.80;52.40;;;;;;5088518;28;20052;-87
2021/12/23 06:14:35;;;;;;;73.10;31.85;;;2.60;53.40;;;;;;5088947;28;20071;-88
2021/12/23 06:17:02;;;;;;;70.38;32.50;;;2.70;53.30;;;;;;5089138;28;20024;-86
2021/12/23 06:19:39;;;;;;;67.95;31.30;;;2.80;53.20;;;;;;5088273;28;20089;-86
2021/12/23 06:22:08;;;;;;;73.25;31.88;;;2.90;53.30;;;;;;5085896;28;20074;-86
2021/12/23 06:24:43;;;;;;;64.90;30.55;;;2.80;53.40;;;;;;5075431;28;20028;-89
2021/12/23 06:42:52;;;;;;;93.40;37.13;;;2.50;54.70;;;;;;5159690;22;20210;-87
2021/12/23 06:45:17;;;;;;;71.97;33.03;;;2.50;55.30;;;;;;5093682;28;20038;-88
2021/12/23 06:47:45;;;;;;;77.88;34.03;;;2.30;55.50;;;;;;5093533;28;20040;-85
2021/12/23 06:50:13;;;;;;;77.88;32.72;;;2.10;56.00;;;;;;5093499;28;20028;-86
2021/12/23 06:52:39;;;;;;;87.50;35.88;;;2.40;55.70;;;;;;5093375;28;20085;-92
2021/12/23 06:55:07;;;;;;;77.70;35.60;;;2.60;55.40;;;;;;5093359;28;20024;-86
2021/12/23 06:57:41;;;;;;;74.10;35.13;;;2.80;55.30;;;;;;5111285;28;20048;-91
2021/12/23 07:00:10;;;;;;;76.22;33.22;;;3.00;54.60;;;;;;5093141;28;20032;-90
2021/12/23 07:02:39;;;;;;;65.20;32.40;;;3.10;54.50;;;;;;5093269;28;20080;-90
2021/12/23 07:05:10;;;;;;;61.75;31.33;;;2.90;54.40;;;;;;5093201;28;20032;-92
2021/12/23 07:10:26;;;;;;;66.30;31.30;;;3.00;54.70;;;;;;5111482;28;20023;-90
2021/12/23 07:13:08;;;;;;;70.95;32.85;;;3.20;54.50;;;;;;5092891;28;20038;-92
2021/12/23 07:15:38;;;;;;;68.55;32.28;;;3.20;54.50;;;;;;5092960;28;20048;-91
2021/12/23 07:18:03;;;;;;;77.35;35.78;;;2.90;54.90;;;;;;5093196;28;20036;-92
2021/12/23 07:20:30;;;;;;;79.03;34.55;;;2.70;55.80;;;;;;5092770;28;20042;-91
2021/12/23 07:23:09;;;;;;;68.55;34.72;;;2.70;56.10;;;;;;5093077;28;20036;-92
2021/12/23 07:25:35;;;;;;;71.32;33.60;;;2.80;56.20;;;;;;5092930;28;20102;-90
2021/12/23 07:28:19;;;;;;;75.18;35.25;;;2.80;55.50;;;;;;5086150;27;1399396;-91
2021/12/23 07:30:45;;;;;;;73.25;33.67;;;2.80;55.50;;;;;;5111873;28;20027;-85
2021/12/23 07:33:10;;;;;;;85.47;36.67;;;3.00;55.60;;;;;;5111622;28;20081;-91
2021/12/23 07:35:36;;;;;;;74.07;34.80;;;3.10;55.30;;;;;;5111823;28;20084;-91
2021/12/23 07:38:02;;;;;;;66.35;34.03;;;3.00;55.60;;;;;;5111615;28;20028;-91
2021/12/23 07:40:29;;;;;;;66.45;32.28;;;3.30;55.10;;;;;;5093403;28;20024;-90
2021/12/23 07:43:31;;;;;;;76.22;36.08;;;3.50;55.00;;;;;;5094190;28;20028;-91
2021/12/23 07:45:56;;;;;;;77.55;35.25;;;3.60;54.60;;;;;;5111329;28;20028;-88
2021/12/23 07:48:22;;;;;;;72.72;37.45;;;3.60;54.80;;;;;;5093303;28;20032;-90
2021/12/23 07:50:51;;;;;;;75.70;35.35;;;3.80;54.50;;;;;;5093351;28;20016;-87
2021/12/23 07:53:18;;;;;;;75.13;37.00;;;4.00;54.20;;;;;;5093102;28;20038;-92
2021/12/23 07:56:03;;;;;;;70.55;35.95;;;3.90;54.00;;;;;;5093430;28;20020;-88
2021/12/23 07:58:28;;;;;;;81.13;35.13;;;4.10;54.20;;;;;;5093656;28;20356;-86
2021/12/23 08:00:54;;;;;;;67.90;32.92;;;4.40;53.80;;;;;;5093281;28;20070;-92
2021/12/23 08:03:20;;;;;;;63.28;32.28;;;4.60;53.00;;;;;;5093326;28;20024;-90
2021/12/23 08:05:49;;;;;;;70.30;34.80;;;4.80;52.50;;;;;;5093088;28;20019;-87
2021/12/23 08:08:18;;;;;;;66.53;33.35;;;5.00;52.30;;;;;;5093225;28;20040;-89
2021/12/23 08:10:44;;;;;;;73.77;34.27;;;4.70;52.70;;;;;;5111180;28;20023;-88
2021/12/23 08:13:12;;;;;;;77.47;36.75;;;4.60;53.10;;;;;;5110588;28;20042;-86
2021/12/23 08:15:40;;;;;;;73.72;35.88;;;4.60;53.00;;;;;;5093186;28;20024;-88
2021/12/23 08:18:33;;;;;;;70.43;32.95;;;4.90;52.60;;;;;;5092782;28;20478;-89
2021/12/23 08:21:33;;;;;;;72.20;34.90;;;4.90;52.40;;;;;;5092677;28;20066;-88
2021/12/23 08:24:04;;;;;;;77.55;36.15;;;4.80;52.40;;;;;;4992589;28;20088;-84
2021/12/23 08:27:14;;;;;;;74.70;37.22;;;4.50;53.10;;;;;;4630019;27;15168515;-85
2021/12/23 08:29:54;;;;;;;79.38;37.30;;;4.30;54.50;;;;;;5109515;28;20043;-84
2021/12/23 08:32:27;;;;;;;83.70;39.40;;;4.20;54.40;;;;;;5092012;28;20036;-85
2021/12/23 08:34:52;;;;;;;80.88;38.90;;;4.60;53.70;;;;;;5092651;28;20039;-88
2021/12/23 08:37:18;;;;;;;83.45;39.58;;;4.80;53.40;;;;;;5092703;28;20028;-87
2021/12/23 08:39:48;;;;;;;92.07;41.20;;;4.90;53.50;;;;;;5092932;28;20058;-90
2021/12/23 08:42:13;;;;;;;83.18;39.55;;;5.00;53.50;;;;;;5092613;28;20122;-83
2021/12/23 08:45:07;;;;;;;87.22;39.15;;;5.00;53.30;;;;;;5092543;28;20186;-85
2021/12/23 08:47:37;;;;;;;78.72;35.40;;;5.40;52.90;;;;;;5092036;28;20036;-89
2021/12/23 08:50:06;;;;;;;71.90;35.45;;;5.50;52.60;;;;;;5092691;28;20040;-86
2021/12/23 08:53:00;;;;;;;69.80;34.75;;;5.50;52.30;;;;;;5092239;28;20467;-84
2021/12/23 08:55:28;;;;;;;69.18;33.88;;;5.50;52.60;;;;;;5091756;28;20028;-87
2021/12/23 08:57:56;;;;;;;67.30;33.10;;;5.50;52.90;;;;;;5092427;28;20120;-89
2021/12/23 09:00:23;;;;;;;68.10;34.08;;;5.20;53.40;;;;;;5108406;27;20039;-87
2021/12/23 09:02:54;;;;;;;74.55;33.95;;;5.40;53.30;;;;;;5133985;27;20041;-84
2021/12/23 09:05:20;;;;;;;83.18;37.85;;;5.30;53.50;;;;;;5134143;27;20035;-85
2021/12/23 09:07:48;;;;;;;73.65;36.53;;;5.20;53.60;;;;;;5134277;27;20083;-88
2021/12/23 09:10:14;;;;;;;74.07;36.35;;;5.40;53.50;;;;;;5133712;27;20469;-83
2021/12/23 09:12:54;;;;;;;69.15;33.38;;;5.20;53.70;;;;;;5133985;27;20351;-88
2021/12/23 09:15:20;;;;;;;73.25;34.08;;;4.60;54.80;;;;;;5133771;27;20033;-84
2021/12/23 09:17:46;;;;;;;71.90;35.75;;;4.20;55.70;;;;;;5133277;27;20091;-86
2021/12/23 09:20:14;;;;;;;80.00;37.22;;;4.10;56.70;;;;;;5133615;27;20047;-86
2021/12/23 09:22:41;;;;;;;73.05;33.15;;;4.40;56.40;;;;;;5152236;27;20023;-87
2021/12/23 09:25:12;;;;;;;67.38;34.78;;;5.00;55.50;;;;;;5151661;27;20075;-86
2021/12/23 09:32:53;;;;;;;59.20;28.35;;;4.90;54.60;;;;;;5151952;27;20029;-85
2021/12/23 09:35:25;;;;;;;58.05;29.05;;;4.80;55.30;;;;;;5133135;27;20118;-84
2021/12/23 09:37:51;;;;;;;65.25;31.13;;;4.60;56.10;;;;;;5121428;27;20109;-83
2021/12/23 09:40:18;;;;;;;60.47;29.88;;;4.80;56.60;;;;;;5119067;27;20019;-83
2021/12/23 09:42:46;;;;;;;64.78;34.42;;;5.90;55.10;;;;;;5119277;27;20033;-83
2021/12/23 09:45:16;;;;;;;63.92;31.23;;;6.50;53.50;;;;;;5119227;27;20118;-82
2021/12/23 09:47:47;;;;;;;57.10;30.65;;;6.50;53.00;;;;;;5119155;27;20035;-83
2021/12/23 09:50:31;;;;;;;64.25;30.67;;;7.00;52.50;;;;;;5118641;27;20095;-83
2021/12/23 09:53:00;;;;;;;74.25;34.58;;;7.40;51.50;;;;;;5119084;27;20079;-82
2021/12/23 09:55:27;;;;;;;53.97;29.25;;;8.10;51.00;;;;;;5119065;27;20023;-84
2021/12/23 09:57:56;;;;;;;55.63;28.23;;;8.90;49.40;;;;;;5118687;27;20114;-83
2021/12/23 10:03:13;;;;;;;44.17;24.90;;;9.90;47.20;;;;;;5137718;27;20038;-83
2021/12/23 10:05:39;;;;;;;42.20;23.23;;;9.90;46.10;;;;;;5136921;27;20039;-82
2021/12/23 10:11:13;;;;;;;41.35;23.08;;;9.50;45.90;;;;;;5053902;28;20526;-85
2021/12/23 10:30:34;;;;;;;39.25;20.92;;;6.80;50.00;;;;;;5053554;28;20399;-82
2021/12/23 10:33:43;;;;;;;38.75;20.90;;;7.10;49.30;;;;;;5053789;28;20025;-83
2021/12/23 10:39:29;;;;;;;38.90;20.38;;;7.60;47.50;;;;;;5053489;28;20036;-91
2021/12/23 10:49:53;;;;;;;35.25;19.33;;;7.20;48.70;;;;;;5067030;28;20070;-89
2021/12/23 10:58:33;;;;;;;36.15;19.00;;;7.00;47.60;;;;;;5073637;28;20386;-90
2021/12/23 11:01:08;;;;;;;36.08;19.75;;;6.40;49.40;;;;;;5056544;28;20455;-88
2021/12/23 11:37:26;;;;;;;35.97;19.33;;;6.80;49.10;;;;;;6106112;23;20012;-88
2021/12/23 11:43:57;;;;;;;35.00;20.23;;;5.60;50.60;;;;;;6077040;23;20078;-88
2021/12/23 11:47:10;;;;;;;35.95;19.27;;;6.10;51.10;;;;;;6051225;23;20011;-87
2021/12/23 11:53:14;;;;;;;34.72;19.02;;;4.20;52.60;;;;;;5938903;23;20389;-88
2021/12/23 11:55:49;;;;;;;37.42;20.23;;;4.00;54.90;;;;;;5926818;24;20013;-89
2021/12/23 12:02:32;;;;;;;;;;;;;;;;;;;;;
2021/12/23 12:05:30;;;;;;;40.03;19.33;;;4.50;55.20;;;;;;5980026;24;20538;-86
2021/12/23 12:08:08;;;;;;;34.47;19.15;;;5.10;53.30;;;;;;5963910;24;20020;-84
2021/12/23 12:10:51;;;;;;;39.42;21.45;;;5.20;52.00;;;;;;5966085;24;20430;-85
2021/12/23 12:13:17;;;;;;;35.22;18.58;;;5.40;51.70;;;;;;5965792;24;20008;-84
2021/12/23 12:16:05;;;;;;;37.53;20.67;;;5.70;51.90;;;;;;5954556;24;20541;-84
2021/12/23 12:18:48;;;;;;;37.28;18.70;;;6.30;51.00;;;;;;5931630;24;20019;-85
2021/12/23 12:21:46;;;;;;;36.63;19.35;;;7.00;50.40;;;;;;5931980;24;20056;-86
2021/12/23 12:31:26;;;;;;;40.30;21.00;;;7.10;50.30;;;;;;6157843;23;20028;-86
2021/12/23 12:41:12;;;;;;;37.80;19.67;;;7.30;49.60;;;;;;5872641;24;20049;-87
2021/12/23 12:43:48;;;;;;;39.83;21.00;;;7.30;49.30;;;;;;5849960;24;20101;-86
2021/12/23 12:49:39;;;;;;;44.08;21.45;;;7.00;50.40;;;;;;5899438;24;20332;-86
2021/12/23 12:53:04;;;;;;;68.65;29.02;;;7.50;50.10;;;;;;5899264;24;20465;-88
2021/12/23 12:56:23;;;;;;;56.58;26.17;;;7.00;49.30;;;;;;5899325;24;20490;-87
2021/12/23 13:05:31;;;;;;;51.20;23.25;;;7.20;50.30;;;;;;6128163;23;20131;-89
2021/12/23 13:15:05;;;;;;;;;;;;;;;;;;;;;
2021/12/23 13:43:46;;;;;;;36.83;18.77;;;6.60;51.50;;;;;;6153530;23;20040;-87
2021/12/23 13:50:16;;;;;;;37.40;20.25;;;7.10;50.00;;;;;;6095278;23;20011;-88
2021/12/23 14:11:57;;;;;;;36.38;20.80;;;7.40;49.30;;;;;;6149434;23;20028;-87
2021/12/23 14:15:28;;;;;;;;;;;;;;;;;;;;;
2021/12/23 15:02:31;;;;;;;140.77;54.83;;;7.60;49.70;;;;;;6152402;22;20434;-87
2021/12/23 15:17:32;;;;;;;70.18;34.08;;;7.80;49.70;;;;;;6153045;23;20431;-85
2021/12/23 15:20:34;;;;;;;75.15;34.92;;;7.70;49.20;;;;;;6100682;23;20049;-87
2021/12/23 15:23:16;;;;;;;69.45;33.35;;;7.30;49.70;;;;;;6080098;23;20037;-87
2021/12/23 15:25:49;;;;;;;62.13;30.55;;;7.30;50.00;;;;;;6097307;23;20006;-87
2021/12/23 15:32:10;;;;;;;56.55;29.08;;;7.70;49.60;;;;;;6126575;23;20068;-86
2021/12/23 15:38:34;;;;;;;51.15;26.85;;;7.50;49.50;;;;;;6039679;23;20070;-86
2021/12/23 15:44:31;;;;;;;39.28;19.75;;;7.50;49.40;;;;;;6035378;23;20105;-84
2021/12/23 15:47:47;;;;;;;37.28;21.10;;;7.40;49.70;;;;;;6102444;23;20018;-84
2021/12/23 15:56:36;;;;;;;45.72;23.85;;;7.50;49.50;;;;;;6156426;23;20048;-84
2021/12/23 15:59:03;;;;;;;54.67;30.48;;;7.50;49.70;;;;;;6130821;23;20434;-85
2021/12/23 16:01:48;;;;;;;48.78;23.17;;;7.50;49.30;;;;;;6130819;23;20012;-84
2021/12/23 16:04:44;;;;;;;;;;;;;;;;;;;;;
2021/12/23 16:14:50;;;;;;;44.15;22.65;;;6.90;50.90;;;;;;6094482;23;20010;-84
2021/12/23 16:18:01;;;;;;;43.92;22.48;;;7.40;50.00;;;;;;6089846;23;20032;-84
2021/12/23 16:24:15;;;;;;;52.60;25.88;;;7.10;50.50;;;;;;6126888;23;20105;-84
2021/12/23 16:27:26;;;;;;;42.47;19.10;;;6.80;51.00;;;;;;6087997;23;20017;-83
2021/12/23 16:33:23;;;;;;;31.15;15.73;;;6.30;52.00;;;;;;6130005;23;20025;-85
2021/12/23 16:47:04;;;;;;;33.00;17.90;;;6.70;50.90;;;;;;6157054;23;20014;-82
2021/12/23 16:53:02;;;;;;;32.92;16.85;;;6.90;51.20;;;;;;6157032;23;20029;-81
2021/12/23 16:55:43;;;;;;;31.98;16.15;;;7.30;50.30;;;;;;6131156;23;20081;-82
2021/12/23 17:14:52;;;;;;;57.67;25.05;;;7.20;50.50;;;;;;6153621;23;20037;-81
2021/12/23 17:30:59;;;;;;;35.40;18.85;;;6.60;50.90;;;;;;6056043;23;20066;-83
2021/12/23 17:34:16;;;;;;;30.70;16.33;;;6.70;50.70;;;;;;6065279;23;20014;-82
2021/12/23 17:37:41;;;;;;;32.78;16.77;;;6.80;50.70;;;;;;6064748;23;20006;-84
2021/12/23 17:40:34;;;;;;;36.92;18.27;;;7.00;50.30;;;;;;6041528;23;20093;-81
2021/12/23 17:47:38;;;;;;;;;;;;;;;;;;;;;
2021/12/23 17:50:04;;;;;;;39.80;20.42;;;7.00;50.10;;;;;;6046107;23;20096;-82
2021/12/23 17:52:59;;;;;;;41.10;19.83;;;6.90;50.40;;;;;;6154739;23;20009;-81
2021/12/23 17:56:09;;;;;;;;;;;;;;;;;;;;;
2021/12/23 17:59:30;;;;;;;39.08;20.02;;;6.90;50.00;;;;;;6036131;23;20107;-83
2021/12/23 18:02:22;;;;;;;34.85;18.33;;;6.70;50.10;;;;;;6028079;23;20087;-80
2021/12/23 18:05:18;;;;;;;44.40;20.60;;;6.30;50.80;;;;;;6036092;23;20419;-81
2021/12/23 18:11:55;;;;;;;;;;;;;;;;;;;;;
2021/12/23 18:17:21;;;;;;;74.53;35.47;;;6.60;51.10;;;;;;6149725;22;20022;-85
2021/12/23 18:23:29;;;;;;;67.50;33.47;;;6.40;51.20;;;;;;6155619;23;20104;-82
2021/12/23 18:25:55;;;;;;;62.00;31.25;;;6.30;50.90;;;;;;6156319;23;20367;-82
2021/12/23 18:28:30;;;;;;;68.32;33.13;;;6.20;51.50;;;;;;6130163;23;20429;-83
2021/12/23 18:30:57;;;;;;;66.35;30.05;;;6.30;51.70;;;;;;6128471;23;20004;-85
2021/12/23 18:33:25;;;;;;;62.75;31.25;;;6.50;51.30;;;;;;6129887;23;20014;-82
2021/12/23 18:35:59;;;;;;;74.05;33.05;;;6.60;50.80;;;;;;6119674;23;20010;-86
2021/12/23 18:38:27;;;;;;;69.10;32.92;;;6.70;50.50;;;;;;6101323;23;20005;-83
2021/12/23 18:40:53;;;;;;;77.55;34.53;;;6.80;50.40;;;;;;6100852;23;20085;-84
2021/12/23 18:43:21;;;;;;;80.93;33.58;;;6.70;50.00;;;;;;6126811;23;20041;-83
2021/12/23 18:45:47;;;;;;;117.30;43.60;;;6.60;50.10;;;;;;6100659;23;20428;-86
2021/12/23 18:48:13;;;;;;;93.15;35.40;;;6.10;51.90;;;;;;6126665;23;20053;-86
2021/12/23 18:50:41;;;;;;;68.03;28.85;;;6.00;52.30;;;;;;6101017;23;20432;-86
2021/12/23 18:53:07;;;;;;;75.28;31.80;;;6.20;52.80;;;;;;6099868;23;20009;-81
2021/12/23 18:55:34;;;;;;;82.32;34.50;;;6.00;52.00;;;;;;6098982;23;20081;-85
2021/12/23 18:58:01;;;;;;;76.78;30.63;;;6.00;51.90;;;;;;6099308;23;20010;-83
2021/12/23 19:01:06;;;;;;;70.70;32.05;;;6.20;51.60;;;;;;6124959;23;20080;-81
2021/12/23 19:06:09;;;;;;;63.70;29.83;;;6.40;51.50;;;;;;6135753;23;20010;-83